sensor_id;sensor_type;location;lat;lon;timestamp;pressure;altitude;pressure_sealevel;temperature;humidity
10668;BME280;5382;42.136;24.796;2023-05-12T00:00:51;100402.53;;;11.32;100.00
10668;BME280;5382;42.136;24.796;2023-05-12T00:03:18;100399.91;;;11.32;100.00
10668;BME280;5382;42.136;24.796;2023-05-12T00:05:44;100402.63;;;11.30;100.00
10668;BME280;5382;42.136;24.796;2023-05-12T00:08:13;100403.34;;;11.20;100.00
10668;BME280;5382;42.136;24.796;2023-05-12T00:10:39;100403.78;;;11.13;100.00
10668;BME280;5382;42.136;24.796;2023-05-12T00:13:06;100402.50;;;11.19;100.00
10668;BME280;5382;42.136;24.796;2023-05-12T00:15:33;100404.09;;;11.22;100.00
10668;BME280;5382;42.136;24.796;2023-05-12T00:18:02;100399.66;;;11.22;100.00
10668;BME280;5382;42.136;24.796;2023-05-12T00:20:28;100403.25;;;11.21;100.00
10668;BME280;5382;42.136;24.796;2023-05-12T00:22:55;100403.13;;;11.23;100.00
10668;BME280;5382;42.136;24.796;2023-05-12T00:25:23;100400.31;;;11.26;100.00
10668;BME280;5382;42.136;24.796;2023-05-12T00:27:50;100402.00;;;11.27;100.00
10668;BME280;5382;42.136;24.796;2023-05-12T00:30:17;100396.78;;;11.25;100.00
10668;BME280;5382;42.136;24.796;2023-05-12T00:32:44;100397.84;;;11.23;100.00
10668;BME280;5382;42.136;24.796;2023-05-12T00:35:10;100399.13;;;11.30;100.00
10668;BME280;5382;42.136;24.796;2023-05-12T00:37:37;100403.22;;;11.08;100.00
10668;BME280;5382;42.136;24.796;2023-05-12T00:40:05;100410.63;;;11.03;100.00
10668;BME280;5382;42.136;24.796;2023-05-12T00:42:34;100400.75;;;10.93;100.00
10668;BME280;5382;42.136;24.796;2023-05-12T00:45:01;100407.28;;;10.87;100.00
10668;BME280;5382;42.136;24.796;2023-05-12T00:47:29;100414.06;;;10.91;100.00
10668;BME280;5382;42.136;24.796;2023-05-12T00:49:56;100402.63;;;10.90;100.00
10668;BME280;5382;42.136;24.796;2023-05-12T00:52:23;100407.94;;;10.90;100.00
10668;BME280;5382;42.136;24.796;2023-05-12T00:54:50;100408.56;;;10.94;100.00
10668;BME280;5382;42.136;24.796;2023-05-12T00:57:17;100415.88;;;10.90;100.00
10668;BME280;5382;42.136;24.796;2023-05-12T00:59:45;100409.81;;;10.88;100.00
10668;BME280;5382;42.136;24.796;2023-05-12T01:02:12;100416.22;;;10.99;100.00
10668;BME280;5382;42.136;24.796;2023-05-12T01:04:39;100421.25;;;10.89;100.00
10668;BME280;5382;42.136;24.796;2023-05-12T01:07:10;100420.88;;;10.95;100.00
10668;BME280;5382;42.136;24.796;2023-05-12T01:09:38;100410.91;;;10.99;100.00
10668;BME280;5382;42.136;24.796;2023-05-12T01:12:05;100411.38;;;11.05;100.00
10668;BME280;5382;42.136;24.796;2023-05-12T01:14:32;100414.56;;;11.10;100.00
10668;BME280;5382;42.136;24.796;2023-05-12T01:17:02;100411.06;;;11.10;100.00
10668;BME280;5382;42.136;24.796;2023-05-12T01:19:39;100415.28;;;11.12;100.00
10668;BME280;5382;42.136;24.796;2023-05-12T01:22:07;100423.06;;;10.88;100.00
10668;BME280;5382;42.136;24.796;2023-05-12T01:24:38;100419.50;;;10.75;100.00
10668;BME280;5382;42.136;24.796;2023-05-12T01:27:09;100418.88;;;10.72;100.00
10668;BME280;5382;42.136;24.796;2023-05-12T01:29:37;100415.53;;;10.68;100.00
10668;BME280;5382;42.136;24.796;2023-05-12T01:32:05;100415.91;;;10.76;100.00
10668;BME280;5382;42.136;24.796;2023-05-12T01:34:33;100411.56;;;10.75;100.00
10668;BME280;5382;42.136;24.796;2023-05-12T01:37:00;100411.81;;;10.85;100.00
10668;BME280;5382;42.136;24.796;2023-05-12T01:39:27;100405.38;;;10.89;100.00
10668;BME280;5382;42.136;24.796;2023-05-12T01:41:53;100403.53;;;11.04;100.00
10668;BME280;5382;42.136;24.796;2023-05-12T01:44:21;100415.84;;;11.05;100.00
10668;BME280;5382;42.136;24.796;2023-05-12T01:46:48;100404.69;;;11.12;100.00
10668;BME280;5382;42.136;24.796;2023-05-12T01:49:15;100406.97;;;11.19;100.00
10668;BME280;5382;42.136;24.796;2023-05-12T01:51:42;100404.84;;;11.24;100.00
10668;BME280;5382;42.136;24.796;2023-05-12T01:54:08;100411.75;;;11.26;100.00
10668;BME280;5382;42.136;24.796;2023-05-12T01:56:35;100403.91;;;11.25;100.00
10668;BME280;5382;42.136;24.796;2023-05-12T01:59:02;100407.00;;;11.31;100.00
10668;BME280;5382;42.136;24.796;2023-05-12T02:01:30;100406.78;;;11.34;100.00
10668;BME280;5382;42.136;24.796;2023-05-12T02:03:57;100406.28;;;11.42;100.00
10668;BME280;5382;42.136;24.796;2023-05-12T02:06:24;100409.22;;;11.38;100.00
10668;BME280;5382;42.136;24.796;2023-05-12T02:08:51;100403.00;;;11.39;100.00
10668;BME280;5382;42.136;24.796;2023-05-12T02:11:18;100407.84;;;11.32;100.00
10668;BME280;5382;42.136;24.796;2023-05-12T02:13:45;100401.38;;;11.23;100.00
10668;BME280;5382;42.136;24.796;2023-05-12T02:16:12;100403.25;;;11.21;100.00
10668;BME280;5382;42.136;24.796;2023-05-12T02:18:40;100401.66;;;11.19;100.00
10668;BME280;5382;42.136;24.796;2023-05-12T02:21:06;100406.22;;;11.17;100.00
10668;BME280;5382;42.136;24.796;2023-05-12T02:23:33;100407.25;;;11.14;100.00
10668;BME280;5382;42.136;24.796;2023-05-12T02:26:00;100408.19;;;11.00;100.00
10668;BME280;5382;42.136;24.796;2023-05-12T02:28:27;100408.22;;;11.13;100.00
10668;BME280;5382;42.136;24.796;2023-05-12T02:30:54;100405.47;;;11.14;100.00
10668;BME280;5382;42.136;24.796;2023-05-12T02:33:21;100403.22;;;11.08;100.00
10668;BME280;5382;42.136;24.796;2023-05-12T02:35:50;100399.78;;;11.21;100.00
10668;BME280;5382;42.136;24.796;2023-05-12T02:38:17;100404.31;;;11.19;100.00
10668;BME280;5382;42.136;24.796;2023-05-12T02:40:45;100404.09;;;11.22;100.00
10668;BME280;5382;42.136;24.796;2023-05-12T02:43:12;100406.50;;;11.12;100.00
10668;BME280;5382;42.136;24.796;2023-05-12T02:45:39;100398.69;;;11.10;100.00
10668;BME280;5382;42.136;24.796;2023-05-12T02:48:05;100405.06;;;11.21;100.00
10668;BME280;5382;42.136;24.796;2023-05-12T02:50:32;100404.19;;;11.20;100.00
10668;BME280;5382;42.136;24.796;2023-05-12T02:53:00;100407.84;;;11.32;100.00
10668;BME280;5382;42.136;24.796;2023-05-12T02:55:27;100405.94;;;11.34;100.00
10668;BME280;5382;42.136;24.796;2023-05-12T02:57:55;100405.72;;;11.37;100.00
10668;BME280;5382;42.136;24.796;2023-05-12T03:00:22;100407.25;;;11.41;100.00
10668;BME280;5382;42.136;24.796;2023-05-12T03:02:48;100400.84;;;11.31;100.00
10668;BME280;5382;42.136;24.796;2023-05-12T03:05:16;100409.66;;;11.31;100.00
10668;BME280;5382;42.136;24.796;2023-05-12T03:07:42;100420.28;;;11.44;100.00
10668;BME280;5382;42.136;24.796;2023-05-12T03:10:11;100422.19;;;11.42;100.00
10668;BME280;5382;42.136;24.796;2023-05-12T03:12:37;100421.97;;;11.45;100.00
10668;BME280;5382;42.136;24.796;2023-05-12T03:15:05;100423.75;;;11.32;100.00
10668;BME280;5382;42.136;24.796;2023-05-12T03:17:33;100435.31;;;11.31;100.00
10668;BME280;5382;42.136;24.796;2023-05-12T03:20:00;100436.78;;;11.35;100.00
10668;BME280;5382;42.136;24.796;2023-05-12T03:22:27;100430.09;;;11.29;100.00
10668;BME280;5382;42.136;24.796;2023-05-12T03:24:54;100440.72;;;11.42;100.00
10668;BME280;5382;42.136;24.796;2023-05-12T03:27:22;100432.69;;;11.44;100.00
10668;BME280;5382;42.136;24.796;2023-05-12T03:29:49;100439.66;;;11.45;100.00
10668;BME280;5382;42.136;24.796;2023-05-12T03:32:16;100433.66;;;11.55;100.00
10668;BME280;5382;42.136;24.796;2023-05-12T03:34:43;100442.66;;;11.53;100.00
10668;BME280;5382;42.136;24.796;2023-05-12T03:37:09;100433.50;;;11.31;100.00
10668;BME280;5382;42.136;24.796;2023-05-12T03:39:36;100442.81;;;11.37;100.00
10668;BME280;5382;42.136;24.796;2023-05-12T03:42:04;100444.53;;;11.51;100.00
10668;BME280;5382;42.136;24.796;2023-05-12T03:44:32;100444.38;;;11.54;100.00
10668;BME280;5382;42.136;24.796;2023-05-12T03:46:59;100447.56;;;11.59;100.00
10668;BME280;5382;42.136;24.796;2023-05-12T03:49:26;100452.47;;;11.38;100.00
10668;BME280;5382;42.136;24.796;2023-05-12T03:51:53;100456.19;;;11.48;100.00
10668;BME280;5382;42.136;24.796;2023-05-12T03:54:19;100460.03;;;11.44;100.00
10668;BME280;5382;42.136;24.796;2023-05-12T03:56:46;100466.91;;;11.47;100.00
10668;BME280;5382;42.136;24.796;2023-05-12T03:59:13;100462.97;;;11.40;100.00
10668;BME280;5382;42.136;24.796;2023-05-12T04:01:42;100466.25;;;11.43;100.00
10668;BME280;5382;42.136;24.796;2023-05-12T04:04:09;100462.38;;;11.49;100.00
10668;BME280;5382;42.136;24.796;2023-05-12T04:06:35;100471.50;;;11.57;100.00
10668;BME280;5382;42.136;24.796;2023-05-12T04:09:02;100469.47;;;11.61;100.00
10668;BME280;5382;42.136;24.796;2023-05-12T04:11:29;100467.91;;;11.71;100.00
10668;BME280;5382;42.136;24.796;2023-05-12T04:13:56;100464.84;;;11.65;100.00
10668;BME280;5382;42.136;24.796;2023-05-12T04:16:23;100474.59;;;11.77;100.00
10668;BME280;5382;42.136;24.796;2023-05-12T04:18:51;100477.59;;;11.85;100.00
10668;BME280;5382;42.136;24.796;2023-05-12T04:21:18;100470.31;;;11.89;100.00
10668;BME280;5382;42.136;24.796;2023-05-12T04:23:45;100463.41;;;11.86;100.00
10668;BME280;5382;42.136;24.796;2023-05-12T04:26:12;100469.63;;;11.72;100.00
10668;BME280;5382;42.136;24.796;2023-05-12T04:28:38;100469.28;;;11.77;100.00
10668;BME280;5382;42.136;24.796;2023-05-12T04:31:05;100459.22;;;11.82;100.00
10668;BME280;5382;42.136;24.796;2023-05-12T04:33:32;100457.53;;;11.81;100.00
10668;BME280;5382;42.136;24.796;2023-05-12T04:36:01;100461.59;;;11.87;100.00
10668;BME280;5382;42.136;24.796;2023-05-12T04:38:28;100450.34;;;11.83;100.00
10668;BME280;5382;42.136;24.796;2023-05-12T04:40:57;100447.59;;;11.97;100.00
10668;BME280;5382;42.136;24.796;2023-05-12T04:43:24;100456.97;;;12.03;100.00
10668;BME280;5382;42.136;24.796;2023-05-12T04:45:51;100443.47;;;11.93;100.00
10668;BME280;5382;42.136;24.796;2023-05-12T04:48:19;100447.59;;;11.97;100.00
10668;BME280;5382;42.136;24.796;2023-05-12T04:50:46;100458.66;;;11.91;100.00
10668;BME280;5382;42.136;24.796;2023-05-12T04:53:15;100449.09;;;11.89;100.00
10668;BME280;5382;42.136;24.796;2023-05-12T04:55:42;100453.13;;;11.94;100.00
10668;BME280;5382;42.136;24.796;2023-05-12T04:58:10;100451.00;;;11.99;100.00
10668;BME280;5382;42.136;24.796;2023-05-12T05:00:37;100455.69;;;12.09;100.00
10668;BME280;5382;42.136;24.796;2023-05-12T05:03:05;100452.06;;;12.10;100.00
10668;BME280;5382;42.136;24.796;2023-05-12T05:05:31;100461.53;;;12.14;100.00
10668;BME280;5382;42.136;24.796;2023-05-12T05:07:58;100461.22;;;12.18;100.00
10668;BME280;5382;42.136;24.796;2023-05-12T05:10:27;100458.66;;;12.17;100.00
10668;BME280;5382;42.136;24.796;2023-05-12T05:12:54;100472.34;;;12.11;100.00
10668;BME280;5382;42.136;24.796;2023-05-12T05:15:21;100467.97;;;12.10;100.00
10668;BME280;5382;42.136;24.796;2023-05-12T05:17:48;100475.19;;;12.08;100.00
10668;BME280;5382;42.136;24.796;2023-05-12T05:20:15;100469.03;;;12.07;100.00
10668;BME280;5382;42.136;24.796;2023-05-12T05:22:41;100463.22;;;12.15;100.00
10668;BME280;5382;42.136;24.796;2023-05-12T05:25:08;100472.66;;;12.19;100.00
10668;BME280;5382;42.136;24.796;2023-05-12T05:27:37;100471.91;;;12.30;100.00
10668;BME280;5382;42.136;24.796;2023-05-12T05:30:05;100470.72;;;12.34;100.00
10668;BME280;5382;42.136;24.796;2023-05-12T05:32:33;100475.41;;;12.17;100.00
10668;BME280;5382;42.136;24.796;2023-05-12T05:35:00;100476.91;;;12.21;100.00
10668;BME280;5382;42.136;24.796;2023-05-12T05:37:27;100481.47;;;12.32;100.00
10668;BME280;5382;42.136;24.796;2023-05-12T05:39:54;100478.38;;;12.38;100.00
10668;BME280;5382;42.136;24.796;2023-05-12T05:42:21;100478.81;;;12.32;100.00
10668;BME280;5382;42.136;24.796;2023-05-12T05:44:49;100477.97;;;12.44;100.00
10668;BME280;5382;42.136;24.796;2023-05-12T05:47:16;100469.31;;;12.54;100.00
10668;BME280;5382;42.136;24.796;2023-05-12T05:49:43;100465.16;;;12.75;100.00
10668;BME280;5382;42.136;24.796;2023-05-12T05:52:10;100473.34;;;12.59;100.00
10668;BME280;5382;42.136;24.796;2023-05-12T05:54:36;100463.22;;;12.77;100.00
10668;BME280;5382;42.136;24.796;2023-05-12T05:57:03;100464.91;;;12.91;100.00
10668;BME280;5382;42.136;24.796;2023-05-12T05:59:30;100464.34;;;12.99;100.00
10668;BME280;5382;42.136;24.796;2023-05-12T06:01:58;100468.78;;;12.98;100.00
10668;BME280;5382;42.136;24.796;2023-05-12T06:04:25;100467.16;;;13.08;100.00
10668;BME280;5382;42.136;24.796;2023-05-12T06:06:52;100470.78;;;13.07;100.00
10668;BME280;5382;42.136;24.796;2023-05-12T06:09:19;100469.34;;;12.91;100.00
10668;BME280;5382;42.136;24.796;2023-05-12T06:11:46;100477.25;;;13.03;100.00
10668;BME280;5382;42.136;24.796;2023-05-12T06:14:12;100492.25;;;13.04;100.00
10668;BME280;5382;42.136;24.796;2023-05-12T06:16:39;100472.06;;;12.78;100.00
10668;BME280;5382;42.136;24.796;2023-05-12T06:19:07;100486.22;;;12.65;100.00
10668;BME280;5382;42.136;24.796;2023-05-12T06:21:34;100494.66;;;12.83;100.00
10668;BME280;5382;42.136;24.796;2023-05-12T06:24:01;100486.56;;;12.85;100.00
10668;BME280;5382;42.136;24.796;2023-05-12T06:26:28;100487.28;;;13.00;100.00
10668;BME280;5382;42.136;24.796;2023-05-12T06:28:55;100487.31;;;12.87;100.00
10668;BME280;5382;42.136;24.796;2023-05-12T06:31:22;100489.69;;;13.03;100.00
10668;BME280;5382;42.136;24.796;2023-05-12T06:33:49;100494.53;;;13.22;100.00
10668;BME280;5382;42.136;24.796;2023-05-12T06:36:17;100489.44;;;13.19;100.00
10668;BME280;5382;42.136;24.796;2023-05-12T06:38:44;100497.03;;;13.36;100.00
10668;BME280;5382;42.136;24.796;2023-05-12T06:41:10;100493.84;;;13.55;100.00
10668;BME280;5382;42.136;24.796;2023-05-12T06:43:37;100487.59;;;13.56;100.00
10668;BME280;5382;42.136;24.796;2023-05-12T06:46:04;100484.38;;;13.64;100.00
10668;BME280;5382;42.136;24.796;2023-05-12T06:48:31;100486.72;;;13.80;100.00
10668;BME280;5382;42.136;24.796;2023-05-12T06:50:58;100485.78;;;13.92;100.00
10668;BME280;5382;42.136;24.796;2023-05-12T06:53:26;100488.94;;;13.97;100.00
10668;BME280;5382;42.136;24.796;2023-05-12T06:55:53;100488.69;;;14.00;100.00
10668;BME280;5382;42.136;24.796;2023-05-12T06:58:20;100482.06;;;14.17;100.00
10668;BME280;5382;42.136;24.796;2023-05-12T07:00:47;100482.94;;;14.29;100.00
10668;BME280;5382;42.136;24.796;2023-05-12T07:03:13;100483.66;;;14.42;100.00
10668;BME280;5382;42.136;24.796;2023-05-12T07:05:40;100485.25;;;14.78;100.00
10668;BME280;5382;42.136;24.796;2023-05-12T07:08:07;100481.88;;;15.20;100.00
10668;BME280;5382;42.136;24.796;2023-05-12T07:10:35;100474.25;;;15.26;100.00
10668;BME280;5382;42.136;24.796;2023-05-12T07:13:02;100476.06;;;15.26;100.00
10668;BME280;5382;42.136;24.796;2023-05-12T07:15:29;100476.56;;;15.20;100.00
10668;BME280;5382;42.136;24.796;2023-05-12T07:17:56;100469.78;;;15.16;100.00
10668;BME280;5382;42.136;24.796;2023-05-12T07:20:23;100481.75;;;15.54;100.00
10668;BME280;5382;42.136;24.796;2023-05-12T07:22:50;100479.69;;;15.25;100.00
10668;BME280;5382;42.136;24.796;2023-05-12T07:25:19;100482.91;;;15.08;100.00
10668;BME280;5382;42.136;24.796;2023-05-12T07:27:47;100482.91;;;15.08;100.00
10668;BME280;5382;42.136;24.796;2023-05-12T07:30:14;100490.25;;;15.15;100.00
10668;BME280;5382;42.136;24.796;2023-05-12T07:32:41;100485.84;;;15.37;100.00
10668;BME280;5382;42.136;24.796;2023-05-12T07:35:08;100494.41;;;15.52;100.00
10668;BME280;5382;42.136;24.796;2023-05-12T07:37:35;100489.75;;;15.54;100.00
10668;BME280;5382;42.136;24.796;2023-05-12T07:40:02;100498.00;;;15.62;100.00
10668;BME280;5382;42.136;24.796;2023-05-12T07:42:29;100493.16;;;15.56;100.00
10668;BME280;5382;42.136;24.796;2023-05-12T07:44:57;100495.56;;;15.70;100.00
10668;BME280;5382;42.136;24.796;2023-05-12T07:47:24;100495.94;;;15.86;100.00
10668;BME280;5382;42.136;24.796;2023-05-12T07:49:52;100495.22;;;15.84;100.00
10668;BME280;5382;42.136;24.796;2023-05-12T07:52:19;100485.53;;;15.83;100.00
10668;BME280;5382;42.136;24.796;2023-05-12T07:54:46;100483.59;;;16.06;100.00
10668;BME280;5382;42.136;24.796;2023-05-12T07:57:13;100479.00;;;16.18;100.00
10668;BME280;5382;42.136;24.796;2023-05-12T07:59:40;100483.00;;;15.82;100.00
10668;BME280;5382;42.136;24.796;2023-05-12T08:02:08;100477.16;;;15.56;100.00
10668;BME280;5382;42.136;24.796;2023-05-12T08:04:35;100484.06;;;15.69;100.00
10668;BME280;5382;42.136;24.796;2023-05-12T08:07:02;100483.19;;;15.69;100.00
10668;BME280;5382;42.136;24.796;2023-05-12T08:09:29;100479.78;;;15.67;100.00
10668;BME280;5382;42.136;24.796;2023-05-12T08:11:56;100482.00;;;15.62;100.00
10668;BME280;5382;42.136;24.796;2023-05-12T08:14:22;100482.84;;;15.62;100.00
10668;BME280;5382;42.136;24.796;2023-05-12T08:16:50;100479.69;;;15.57;100.00
10668;BME280;5382;42.136;24.796;2023-05-12T08:19:18;100488.97;;;15.95;100.00
10668;BME280;5382;42.136;24.796;2023-05-12T08:21:45;100483.06;;;15.91;100.00
10668;BME280;5382;42.136;24.796;2023-05-12T08:24:12;100483.94;;;16.23;100.00
10668;BME280;5382;42.136;24.796;2023-05-12T08:26:38;100482.63;;;16.38;100.00
10668;BME280;5382;42.136;24.796;2023-05-12T08:29:05;100481.47;;;16.31;100.00
10668;BME280;5382;42.136;24.796;2023-05-12T08:31:33;100486.00;;;16.40;100.00
10668;BME280;5382;42.136;24.796;2023-05-12T08:33:59;100480.06;;;16.67;100.00
10668;BME280;5382;42.136;24.796;2023-05-12T08:36:28;100481.28;;;16.53;100.00
10668;BME280;5382;42.136;24.796;2023-05-12T08:38:55;100476.78;;;16.54;100.00
10668;BME280;5382;42.136;24.796;2023-05-12T08:41:27;100479.53;;;16.73;100.00
10668;BME280;5382;42.136;24.796;2023-05-12T08:43:58;100476.22;;;16.81;100.00
10668;BME280;5382;42.136;24.796;2023-05-12T08:46:25;100480.78;;;16.69;100.00
10668;BME280;5382;42.136;24.796;2023-05-12T08:48:52;100477.59;;;16.75;100.00
10668;BME280;5382;42.136;24.796;2023-05-12T08:51:21;100480.28;;;16.85;100.00
10668;BME280;5382;42.136;24.796;2023-05-12T08:53:52;100474.66;;;16.78;100.00
10668;BME280;5382;42.136;24.796;2023-05-12T08:56:21;100484.69;;;16.55;100.00
10668;BME280;5382;42.136;24.796;2023-05-12T08:58:49;100468.69;;;16.65;100.00
10668;BME280;5382;42.136;24.796;2023-05-12T09:01:16;100464.53;;;16.51;100.00
10668;BME280;5382;42.136;24.796;2023-05-12T09:03:43;100474.22;;;16.43;100.00
10668;BME280;5382;42.136;24.796;2023-05-12T09:06:10;100452.75;;;16.54;100.00
10668;BME280;5382;42.136;24.796;2023-05-12T09:08:37;100461.47;;;16.87;100.00
10668;BME280;5382;42.136;24.796;2023-05-12T09:11:09;100465.53;;;16.91;100.00
10668;BME280;5382;42.136;24.796;2023-05-12T09:13:41;100461.34;;;16.88;100.00
10668;BME280;5382;42.136;24.796;2023-05-12T09:16:13;100465.63;;;17.30;100.00
10668;BME280;5382;42.136;24.796;2023-05-12T09:18:49;100459.97;;;17.33;98.25
10668;BME280;5382;42.136;24.796;2023-05-12T09:21:16;100455.75;;;17.30;98.95
10668;BME280;5382;42.136;24.796;2023-05-12T09:23:51;100462.09;;;17.39;96.98
10668;BME280;5382;42.136;24.796;2023-05-12T09:26:20;100458.44;;;17.40;98.62
10668;BME280;5382;42.136;24.796;2023-05-12T09:28:48;100445.88;;;17.50;100.00
10668;BME280;5382;42.136;24.796;2023-05-12T09:31:18;100445.03;;;17.20;100.00
10668;BME280;5382;42.136;24.796;2023-05-12T09:33:45;100447.69;;;17.01;100.00
10668;BME280;5382;42.136;24.796;2023-05-12T09:36:16;100450.38;;;17.11;100.00
10668;BME280;5382;42.136;24.796;2023-05-12T09:38:42;100447.88;;;17.38;100.00
10668;BME280;5382;42.136;24.796;2023-05-12T09:41:09;100446.16;;;17.47;100.00
10668;BME280;5382;42.136;24.796;2023-05-12T09:43:43;100448.97;;;17.55;97.94
10668;BME280;5382;42.136;24.796;2023-05-12T09:46:10;100446.28;;;17.75;98.72
10668;BME280;5382;42.136;24.796;2023-05-12T09:48:39;100438.44;;;17.63;94.49
10668;BME280;5382;42.136;24.796;2023-05-12T09:51:08;100441.09;;;17.63;92.54
10668;BME280;5382;42.136;24.796;2023-05-12T09:53:40;100437.31;;;17.47;91.82
10668;BME280;5382;42.136;24.796;2023-05-12T09:56:09;100432.66;;;17.58;91.73
10668;BME280;5382;42.136;24.796;2023-05-12T09:58:41;100433.06;;;17.63;86.51
10668;BME280;5382;42.136;24.796;2023-05-12T10:01:09;100422.75;;;17.88;84.06
10668;BME280;5382;42.136;24.796;2023-05-12T10:03:37;100425.81;;;18.13;84.79
10668;BME280;5382;42.136;24.796;2023-05-12T10:06:09;100422.56;;;18.09;86.43
10668;BME280;5382;42.136;24.796;2023-05-12T10:08:45;100434.31;;;18.36;83.04
10668;BME280;5382;42.136;24.796;2023-05-12T10:11:14;100431.66;;;18.36;87.04
10668;BME280;5382;42.136;24.796;2023-05-12T10:13:43;100435.59;;;18.31;81.81
10668;BME280;5382;42.136;24.796;2023-05-12T10:16:10;100425.06;;;18.20;80.97
10668;BME280;5382;42.136;24.796;2023-05-12T10:18:38;100422.22;;;18.59;83.51
10668;BME280;5382;42.136;24.796;2023-05-12T10:21:06;100420.84;;;18.83;82.42
10668;BME280;5382;42.136;24.796;2023-05-12T10:23:38;100426.59;;;18.88;83.43
10668;BME280;5382;42.136;24.796;2023-05-12T10:26:08;100417.72;;;18.87;82.55
10668;BME280;5382;42.136;24.796;2023-05-12T10:28:36;100406.25;;;19.13;88.35
10668;BME280;5382;42.136;24.796;2023-05-12T10:31:04;100414.94;;;19.33;81.91
10668;BME280;5382;42.136;24.796;2023-05-12T10:33:32;100413.22;;;19.24;80.69
10668;BME280;5382;42.136;24.796;2023-05-12T10:35:59;100410.94;;;19.73;81.99
10668;BME280;5382;42.136;24.796;2023-05-12T10:38:25;100414.47;;;19.99;71.03
10668;BME280;5382;42.136;24.796;2023-05-12T10:40:53;100415.59;;;19.89;81.00
10668;BME280;5382;42.136;24.796;2023-05-12T10:43:22;100416.78;;;20.20;73.65
10668;BME280;5382;42.136;24.796;2023-05-12T10:46:07;100407.34;;;19.90;71.85
10668;BME280;5382;42.136;24.796;2023-05-12T10:48:35;100399.69;;;20.30;70.78
10668;BME280;5382;42.136;24.796;2023-05-12T10:51:07;100392.19;;;20.92;64.74
10668;BME280;5382;42.136;24.796;2023-05-12T10:53:34;100392.19;;;21.00;65.90
10668;BME280;5382;42.136;24.796;2023-05-12T10:56:02;100388.19;;;21.12;68.46
10668;BME280;5382;42.136;24.796;2023-05-12T10:58:30;100380.16;;;21.45;68.50
10668;BME280;5382;42.136;24.796;2023-05-12T11:01:03;100382.78;;;21.37;64.88
10668;BME280;5382;42.136;24.796;2023-05-12T11:03:33;100379.75;;;21.32;66.10
10668;BME280;5382;42.136;24.796;2023-05-12T11:06:02;100382.84;;;21.45;63.58
10668;BME280;5382;42.136;24.796;2023-05-12T11:08:29;100379.78;;;21.65;64.17
10668;BME280;5382;42.136;24.796;2023-05-12T11:10:59;100382.59;;;22.52;62.16
10668;BME280;5382;42.136;24.796;2023-05-12T11:13:27;100372.97;;;22.80;58.38
10668;BME280;5382;42.136;24.796;2023-05-12T11:15:55;100367.09;;;22.77;57.76
10668;BME280;5382;42.136;24.796;2023-05-12T11:18:22;100369.53;;;22.63;56.59
10668;BME280;5382;42.136;24.796;2023-05-12T11:20:50;100374.75;;;22.65;62.07
10668;BME280;5382;42.136;24.796;2023-05-12T11:23:24;100371.84;;;22.35;56.83
10668;BME280;5382;42.136;24.796;2023-05-12T11:25:53;100368.75;;;22.07;57.15
10668;BME280;5382;42.136;24.796;2023-05-12T11:28:20;100368.06;;;22.53;60.95
10668;BME280;5382;42.136;24.796;2023-05-12T11:30:50;100373.19;;;22.71;56.85
10668;BME280;5382;42.136;24.796;2023-05-12T11:33:21;100366.03;;;22.86;59.87
10668;BME280;5382;42.136;24.796;2023-05-12T11:35:49;100369.84;;;22.69;56.60
10668;BME280;5382;42.136;24.796;2023-05-12T11:38:18;100369.09;;;22.52;56.77
10668;BME280;5382;42.136;24.796;2023-05-12T11:40:49;100358.63;;;22.57;55.86
10668;BME280;5382;42.136;24.796;2023-05-12T11:43:19;100359.56;;;22.33;54.33
10668;BME280;5382;42.136;24.796;2023-05-12T11:45:46;100359.25;;;21.64;55.62
10668;BME280;5382;42.136;24.796;2023-05-12T11:48:13;100362.13;;;21.62;58.41
10668;BME280;5382;42.136;24.796;2023-05-12T11:50:42;100359.06;;;21.24;59.09
10668;BME280;5382;42.136;24.796;2023-05-12T11:53:12;100358.94;;;21.42;59.83
10668;BME280;5382;42.136;24.796;2023-05-12T11:55:48;100352.75;;;22.06;58.68
10668;BME280;5382;42.136;24.796;2023-05-12T11:58:18;100356.44;;;22.52;55.75
10668;BME280;5382;42.136;24.796;2023-05-12T12:00:46;100349.00;;;23.32;54.54
10668;BME280;5382;42.136;24.796;2023-05-12T12:03:14;100352.25;;;23.65;53.40
10668;BME280;5382;42.136;24.796;2023-05-12T12:05:43;100344.72;;;24.05;50.44
10668;BME280;5382;42.136;24.796;2023-05-12T12:08:11;100341.59;;;23.63;51.49
10668;BME280;5382;42.136;24.796;2023-05-12T12:10:41;100350.34;;;23.88;54.51
10668;BME280;5382;42.136;24.796;2023-05-12T12:13:10;100331.88;;;23.92;52.02
10668;BME280;5382;42.136;24.796;2023-05-12T12:15:37;100341.28;;;23.81;50.08
10668;BME280;5382;42.136;24.796;2023-05-12T12:18:04;100352.38;;;24.01;50.87
10668;BME280;5382;42.136;24.796;2023-05-12T12:20:31;100348.53;;;24.40;50.16
10668;BME280;5382;42.136;24.796;2023-05-12T12:22:57;100349.41;;;23.81;49.74
10668;BME280;5382;42.136;24.796;2023-05-12T12:25:24;100341.81;;;23.24;50.37
10668;BME280;5382;42.136;24.796;2023-05-12T12:27:51;100339.63;;;22.96;50.15
10668;BME280;5382;42.136;24.796;2023-05-12T12:30:19;100345.50;;;23.08;51.24
10668;BME280;5382;42.136;24.796;2023-05-12T12:32:46;100338.78;;;23.42;49.65
10668;BME280;5382;42.136;24.796;2023-05-12T12:35:13;100316.50;;;23.78;48.00
10668;BME280;5382;42.136;24.796;2023-05-12T12:37:41;100325.25;;;24.09;48.78
10668;BME280;5382;42.136;24.796;2023-05-12T12:40:09;100316.69;;;24.57;47.50
10668;BME280;5382;42.136;24.796;2023-05-12T12:42:37;100318.50;;;24.35;48.93
10668;BME280;5382;42.136;24.796;2023-05-12T12:45:06;100308.03;;;24.47;47.84